EUS37SM EGPF-EIDW
Flight info
| Callsign | EUS37SM |
|---|---|
| Flight time | 1h 3m |
| Altitude | 24000 |
| Route | NORBO L186 TRN DCT BLACA DCT NELBO P620 NIMAT NIMAT4L |
| Aircraft | A320/M-SDE3FGHIRWY/LB1 |
Departure
| Time | 2026-05-01 11:39 |
|---|---|
| Airport | Glasgow Airport (EGPF) |
Arrival
| Time | 2026-05-01 12:42 |
|---|---|
| Airport | Dublin Airport (EIDW) |
| Time | Latitude | Longitude | Altitude | Speed | Heading |
|---|---|---|---|---|---|
| 2026-05-01 11:39 | 55.82772 | -4.51278 | 2902 ft | 226 kts | 222° |
| 2026-05-01 11:39 | 55.81604 | -4.53345 | 3581 ft | 246 kts | 222° |
| 2026-05-01 11:40 | 55.80378 | -4.55516 | 4601 ft | 250 kts | 222° |
| 2026-05-01 11:40 | 55.79134 | -4.57717 | 5519 ft | 256 kts | 223° |
| 2026-05-01 11:40 | 55.77871 | -4.59952 | 5850 ft | 256 kts | 223° |
| 2026-05-01 11:40 | 55.76607 | -4.62182 | 5967 ft | 256 kts | 223° |
| 2026-05-01 11:41 | 55.75344 | -4.64409 | 5991 ft | 256 kts | 223° |
| 2026-05-01 11:41 | 55.74078 | -4.66640 | 6105 ft | 259 kts | 223° |
| 2026-05-01 11:41 | 55.72796 | -4.68895 | 7135 ft | 259 kts | 223° |
| 2026-05-01 11:41 | 55.71505 | -4.71134 | 8208 ft | 261 kts | 222° |
| 2026-05-01 11:42 | 55.70187 | -4.73369 | 9227 ft | 264 kts | 220° |
| 2026-05-01 11:42 | 55.68644 | -4.75116 | 10190 ft | 266 kts | 201° |
| 2026-05-01 11:42 | 55.66831 | -4.75790 | 11015 ft | 273 kts | 184° |
| 2026-05-01 11:42 | 55.64848 | -4.75945 | 11422 ft | 296 kts | 182° |
| 2026-05-01 11:43 | 55.62753 | -4.76069 | 12135 ft | 305 kts | 182° |
| 2026-05-01 11:43 | 55.60612 | -4.76185 | 12991 ft | 310 kts | 182° |
| 2026-05-01 11:43 | 55.58439 | -4.76307 | 13883 ft | 315 kts | 182° |
| 2026-05-01 11:44 | 55.54008 | -4.76613 | 15419 ft | 322 kts | 183° |
| 2026-05-01 11:44 | 55.51756 | -4.76790 | 16163 ft | 326 kts | 183° |
| 2026-05-01 11:44 | 55.49509 | -4.76969 | 16896 ft | 329 kts | 183° |
| 2026-05-01 11:44 | 55.47177 | -4.77155 | 17647 ft | 333 kts | 183° |
| 2026-05-01 11:45 | 55.44847 | -4.77339 | 18386 ft | 337 kts | 183° |
| 2026-05-01 11:45 | 55.42521 | -4.77519 | 19045 ft | 341 kts | 183° |
| 2026-05-01 11:45 | 55.40112 | -4.77704 | 19722 ft | 343 kts | 183° |
| 2026-05-01 11:45 | 55.37719 | -4.77892 | 20391 ft | 345 kts | 183° |
| 2026-05-01 11:46 | 55.35344 | -4.78082 | 21037 ft | 348 kts | 183° |
| 2026-05-01 11:46 | 55.32923 | -4.78343 | 21682 ft | 350 kts | 187° |
| 2026-05-01 11:46 | 55.30545 | -4.79294 | 22315 ft | 353 kts | 198° |
| 2026-05-01 11:46 | 55.28293 | -4.81049 | 22956 ft | 356 kts | 205° |
| 2026-05-01 11:47 | 55.26072 | -4.83020 | 23602 ft | 359 kts | 205° |
| 2026-05-01 11:47 | 55.23835 | -4.84997 | 24007 ft | 362 kts | 205° |
| 2026-05-01 11:47 | 55.21586 | -4.86976 | 24118 ft | 360 kts | 205° |
| 2026-05-01 11:47 | 55.19408 | -4.88889 | 24141 ft | 341 kts | 205° |
| 2026-05-01 11:48 | 55.17326 | -4.90715 | 24146 ft | 332 kts | 205° |
| 2026-05-01 11:48 | 55.15268 | -4.92513 | 24144 ft | 330 kts | 204° |
| 2026-05-01 11:48 | 55.13216 | -4.94302 | 24171 ft | 330 kts | 204° |
| 2026-05-01 11:48 | 55.11830 | -4.95513 | 24164 ft | 330 kts | 204° |
| 2026-05-01 11:49 | 55.09778 | -4.97304 | 24154 ft | 330 kts | 204° |
| 2026-05-01 11:49 | 55.07753 | -4.99071 | 24153 ft | 330 kts | 204° |
| 2026-05-01 11:49 | 55.05672 | -5.00883 | 24152 ft | 330 kts | 204° |
| 2026-05-01 11:49 | 55.03646 | -5.02641 | 24149 ft | 330 kts | 204° |
| 2026-05-01 11:50 | 55.01567 | -5.04444 | 24147 ft | 330 kts | 204° |
| 2026-05-01 11:50 | 54.99540 | -5.06200 | 24146 ft | 329 kts | 204° |
| 2026-05-01 11:50 | 54.97490 | -5.07976 | 24144 ft | 329 kts | 204° |
| 2026-05-01 11:50 | 54.95437 | -5.09749 | 24145 ft | 329 kts | 204° |
| 2026-05-01 11:51 | 54.93384 | -5.11519 | 24147 ft | 329 kts | 204° |
| 2026-05-01 11:51 | 54.91332 | -5.13291 | 24145 ft | 329 kts | 204° |
| 2026-05-01 11:51 | 54.89279 | -5.15054 | 24145 ft | 329 kts | 202° |
| 2026-05-01 11:51 | 54.87125 | -5.16339 | 24145 ft | 327 kts | 191° |
| 2026-05-01 11:52 | 54.84903 | -5.17152 | 24144 ft | 326 kts | 191° |
| 2026-05-01 11:52 | 54.82682 | -5.17965 | 24145 ft | 326 kts | 191° |
| 2026-05-01 11:52 | 54.80459 | -5.18781 | 24147 ft | 326 kts | 191° |
| 2026-05-01 11:52 | 54.78236 | -5.19596 | 24145 ft | 326 kts | 191° |
| 2026-05-01 11:53 | 54.76015 | -5.20412 | 24141 ft | 326 kts | 191° |
| 2026-05-01 11:53 | 54.73792 | -5.21228 | 24148 ft | 326 kts | 191° |
| 2026-05-01 11:53 | 54.71571 | -5.22043 | 24149 ft | 326 kts | 191° |
| 2026-05-01 11:53 | 54.69347 | -5.22860 | 24146 ft | 327 kts | 191° |
| 2026-05-01 11:54 | 54.67126 | -5.23682 | 24147 ft | 327 kts | 191° |
| 2026-05-01 11:54 | 54.64905 | -5.24504 | 24147 ft | 326 kts | 191° |
| 2026-05-01 11:54 | 54.62682 | -5.25321 | 24147 ft | 326 kts | 191° |
| 2026-05-01 11:54 | 54.60460 | -5.26130 | 24147 ft | 327 kts | 191° |
| 2026-05-01 11:55 | 54.58235 | -5.26937 | 24144 ft | 327 kts | 191° |
| 2026-05-01 11:55 | 54.56011 | -5.27745 | 24148 ft | 327 kts | 191° |
| 2026-05-01 11:55 | 54.53786 | -5.28551 | 24148 ft | 327 kts | 191° |
| 2026-05-01 11:55 | 54.51562 | -5.29358 | 24150 ft | 327 kts | 191° |
| 2026-05-01 11:56 | 54.49349 | -5.30240 | 24149 ft | 327 kts | 196° |
| 2026-05-01 11:56 | 54.47248 | -5.31762 | 24147 ft | 329 kts | 204° |
| 2026-05-01 11:56 | 54.45198 | -5.33512 | 24150 ft | 329 kts | 204° |
| 2026-05-01 11:56 | 54.43131 | -5.35265 | 24155 ft | 339 kts | 204° |
| 2026-05-01 11:57 | 54.40955 | -5.37097 | 24153 ft | 354 kts | 203° |
| 2026-05-01 11:57 | 54.38731 | -5.38970 | 24148 ft | 358 kts | 204° |
| 2026-05-01 11:57 | 54.36492 | -5.40860 | 24147 ft | 359 kts | 203° |
| 2026-05-01 11:57 | 54.34250 | -5.42756 | 24149 ft | 360 kts | 203° |
| 2026-05-01 11:58 | 54.32003 | -5.44652 | 24150 ft | 360 kts | 203° |
| 2026-05-01 11:58 | 54.29760 | -5.46538 | 24150 ft | 360 kts | 203° |
| 2026-05-01 11:58 | 54.25264 | -5.50313 | 24149 ft | 358 kts | 203° |
| 2026-05-01 11:59 | 54.23079 | -5.52146 | 23661 ft | 344 kts | 203° |
| 2026-05-01 11:59 | 54.20946 | -5.53928 | 22673 ft | 339 kts | 203° |
| 2026-05-01 11:59 | 54.18842 | -5.55680 | 21762 ft | 334 kts | 203° |
| 2026-05-01 12:00 | 54.14711 | -5.59118 | 19999 ft | 326 kts | 203° |
| 2026-05-01 12:00 | 54.12681 | -5.60808 | 19174 ft | 323 kts | 203° |
| 2026-05-01 12:00 | 54.08688 | -5.64123 | 17667 ft | 311 kts | 203° |
| 2026-05-01 12:01 | 54.06796 | -5.65689 | 17386 ft | 297 kts | 203° |
| 2026-05-01 12:01 | 54.04953 | -5.67220 | 17123 ft | 293 kts | 203° |
| 2026-05-01 12:01 | 54.03150 | -5.68716 | 16880 ft | 292 kts | 203° |
| 2026-05-01 12:01 | 54.01325 | -5.70225 | 16612 ft | 291 kts | 203° |
| 2026-05-01 12:02 | 53.99509 | -5.71726 | 16352 ft | 289 kts | 203° |
| 2026-05-01 12:02 | 53.97695 | -5.73185 | 16108 ft | 287 kts | 199° |
| 2026-05-01 12:02 | 53.95790 | -5.74119 | 15857 ft | 284 kts | 188° |
| 2026-05-01 12:02 | 53.93830 | -5.74402 | 15607 ft | 282 kts | 181° |
| 2026-05-01 12:03 | 53.91869 | -5.74535 | 15360 ft | 282 kts | 182° |
| 2026-05-01 12:03 | 53.89914 | -5.74675 | 15116 ft | 281 kts | 182° |
| 2026-05-01 12:03 | 53.87966 | -5.74815 | 14873 ft | 280 kts | 182° |
| 2026-05-01 12:03 | 53.86025 | -5.74952 | 14633 ft | 279 kts | 182° |
| 2026-05-01 12:04 | 53.84091 | -5.75089 | 14393 ft | 278 kts | 182° |
| 2026-05-01 12:04 | 53.82163 | -5.75226 | 14153 ft | 277 kts | 182° |
| 2026-05-01 12:04 | 53.80241 | -5.75361 | 13919 ft | 276 kts | 182° |
| 2026-05-01 12:04 | 53.78325 | -5.75495 | 13651 ft | 275 kts | 182° |
| 2026-05-01 12:05 | 53.76418 | -5.75631 | 13390 ft | 274 kts | 182° |
| 2026-05-01 12:05 | 53.72626 | -5.75902 | 12863 ft | 271 kts | 182° |
| 2026-05-01 12:05 | 53.70743 | -5.76033 | 12604 ft | 270 kts | 182° |
| 2026-05-01 12:06 | 53.68869 | -5.76165 | 12350 ft | 269 kts | 182° |
| 2026-05-01 12:06 | 53.67051 | -5.76624 | 12095 ft | 269 kts | 197° |
| 2026-05-01 12:06 | 53.65410 | -5.78148 | 11834 ft | 273 kts | 216° |
| 2026-05-01 12:06 | 53.64187 | -5.80621 | 11599 ft | 280 kts | 236° |
| 2026-05-01 12:07 | 53.63546 | -5.83758 | 11336 ft | 287 kts | 251° |
| 2026-05-01 12:07 | 53.63113 | -5.87044 | 11086 ft | 287 kts | 252° |
| 2026-05-01 12:07 | 53.62682 | -5.90321 | 10846 ft | 286 kts | 251° |
| 2026-05-01 12:07 | 53.62252 | -5.93582 | 10600 ft | 285 kts | 251° |
| 2026-05-01 12:08 | 53.61820 | -5.96829 | 10360 ft | 284 kts | 251° |
| 2026-05-01 12:08 | 53.61388 | -6.00064 | 10121 ft | 282 kts | 251° |
| 2026-05-01 12:08 | 53.60955 | -6.03280 | 9971 ft | 282 kts | 251° |
| 2026-05-01 12:08 | 53.60518 | -6.06492 | 9838 ft | 281 kts | 251° |
| 2026-05-01 12:09 | 53.60081 | -6.09696 | 9706 ft | 281 kts | 251° |
| 2026-05-01 12:09 | 53.59643 | -6.12895 | 9574 ft | 280 kts | 251° |
| 2026-05-01 12:09 | 53.59209 | -6.16089 | 9443 ft | 279 kts | 251° |
| 2026-05-01 12:09 | 53.58779 | -6.19271 | 9311 ft | 279 kts | 251° |
| 2026-05-01 12:10 | 53.58350 | -6.22441 | 9093 ft | 276 kts | 251° |
| 2026-05-01 12:10 | 53.57490 | -6.28677 | 8363 ft | 270 kts | 251° |
| 2026-05-01 12:10 | 53.57078 | -6.31682 | 8239 ft | 257 kts | 251° |
| 2026-05-01 12:11 | 53.57450 | -6.37427 | 8122 ft | 260 kts | 297° |
| 2026-05-01 12:11 | 53.58724 | -6.39618 | 8121 ft | 269 kts | 324° |
| 2026-05-01 12:11 | 53.60364 | -6.41164 | 8130 ft | 271 kts | 328° |
| 2026-05-01 12:12 | 53.62021 | -6.42674 | 8128 ft | 271 kts | 328° |
| 2026-05-01 12:12 | 53.63670 | -6.44206 | 8128 ft | 270 kts | 323° |
| 2026-05-01 12:12 | 53.65082 | -6.46222 | 8124 ft | 264 kts | 306° |
| 2026-05-01 12:12 | 53.66111 | -6.48741 | 8119 ft | 259 kts | 294° |
| 2026-05-01 12:13 | 53.67013 | -6.51376 | 8121 ft | 259 kts | 294° |
| 2026-05-01 12:13 | 53.67922 | -6.54004 | 8119 ft | 260 kts | 295° |
| 2026-05-01 12:13 | 53.68835 | -6.56633 | 8119 ft | 260 kts | 295° |
| 2026-05-01 12:13 | 53.69564 | -6.59370 | 8117 ft | 253 kts | 279° |
| 2026-05-01 12:14 | 53.69817 | -6.62256 | 8122 ft | 246 kts | 264° |
| 2026-05-01 12:14 | 53.69789 | -6.65133 | 8121 ft | 245 kts | 263° |
| 2026-05-01 12:14 | 53.69759 | -6.68008 | 8114 ft | 245 kts | 263° |
| 2026-05-01 12:14 | 53.69731 | -6.70885 | 8112 ft | 245 kts | 263° |
| 2026-05-01 12:15 | 53.69700 | -6.73761 | 8115 ft | 244 kts | 260° |
| 2026-05-01 12:15 | 53.69361 | -6.76510 | 8112 ft | 236 kts | 243° |
| 2026-05-01 12:15 | 53.68605 | -6.78923 | 8129 ft | 233 kts | 232° |
| 2026-05-01 12:15 | 53.67738 | -6.81239 | 8083 ft | 232 kts | 233° |
| 2026-05-01 12:16 | 53.66884 | -6.83543 | 7739 ft | 231 kts | 233° |
| 2026-05-01 12:16 | 53.66034 | -6.85842 | 7384 ft | 231 kts | 233° |
| 2026-05-01 12:16 | 53.65188 | -6.88119 | 7183 ft | 228 kts | 232° |
| 2026-05-01 12:16 | 53.64136 | -6.90078 | 7065 ft | 225 kts | 215° |
| 2026-05-01 12:17 | 53.62804 | -6.91424 | 6941 ft | 223 kts | 204° |
| 2026-05-01 12:17 | 53.61417 | -6.92607 | 6819 ft | 223 kts | 205° |
| 2026-05-01 12:17 | 53.60033 | -6.93792 | 6698 ft | 223 kts | 204° |
| 2026-05-01 12:17 | 53.58553 | -6.94450 | 6564 ft | 221 kts | 180° |
| 2026-05-01 12:18 | 53.57068 | -6.93859 | 6451 ft | 223 kts | 154° |
| 2026-05-01 12:18 | 53.55911 | -6.92110 | 6321 ft | 229 kts | 127° |
| 2026-05-01 12:18 | 53.55382 | -6.89556 | 6191 ft | 238 kts | 100° |
| 2026-05-01 12:18 | 53.55239 | -6.86770 | 6053 ft | 239 kts | 99° |
| 2026-05-01 12:19 | 53.55100 | -6.83986 | 5934 ft | 239 kts | 99° |
| 2026-05-01 12:19 | 53.54958 | -6.81206 | 5809 ft | 238 kts | 99° |
| 2026-05-01 12:19 | 53.54815 | -6.78431 | 5684 ft | 238 kts | 99° |
| 2026-05-01 12:19 | 53.54668 | -6.75657 | 5555 ft | 238 kts | 99° |
| 2026-05-01 12:20 | 53.54519 | -6.72882 | 5400 ft | 238 kts | 99° |
| 2026-05-01 12:20 | 53.54242 | -6.70165 | 5276 ft | 233 kts | 117° |
| 2026-05-01 12:20 | 53.53271 | -6.68095 | 5033 ft | 225 kts | 148° |
| 2026-05-01 12:20 | 53.51835 | -6.67238 | 4765 ft | 220 kts | 179° |
| 2026-05-01 12:21 | 53.50339 | -6.67411 | 4636 ft | 209 kts | 186° |
| 2026-05-01 12:21 | 53.48940 | -6.67408 | 4548 ft | 201 kts | 171° |
| 2026-05-01 12:21 | 53.47618 | -6.66654 | 4459 ft | 196 kts | 153° |
| 2026-05-01 12:21 | 53.46566 | -6.65296 | 4333 ft | 194 kts | 136° |
| 2026-05-01 12:22 | 53.45802 | -6.63397 | 4036 ft | 200 kts | 116° |
| 2026-05-01 12:22 | 53.45463 | -6.61086 | 3829 ft | 204 kts | 98° |
| 2026-05-01 12:22 | 53.45342 | -6.58747 | 3617 ft | 204 kts | 97° |
| 2026-05-01 12:22 | 53.45222 | -6.56371 | 3510 ft | 199 kts | 98° |
| 2026-05-01 12:23 | 53.45104 | -6.54091 | 3307 ft | 200 kts | 98° |
| 2026-05-01 12:23 | 53.44984 | -6.51807 | 3054 ft | 203 kts | 98° |
| 2026-05-01 12:23 | 53.44860 | -6.49438 | 2801 ft | 202 kts | 98° |
| 2026-05-01 12:23 | 53.44738 | -6.47121 | 2522 ft | 198 kts | 99° |
| 2026-05-01 12:24 | 53.44618 | -6.44846 | 2253 ft | 191 kts | 99° |
| 2026-05-01 12:24 | 53.44505 | -6.42701 | 1990 ft | 177 kts | 97° |
| 2026-05-01 12:24 | 53.44399 | -6.40708 | 1748 ft | 167 kts | 98° |
| 2026-05-01 12:24 | 53.44301 | -6.38876 | 1549 ft | 150 kts | 99° |
| 2026-05-01 12:25 | 53.44210 | -6.37186 | 1325 ft | 143 kts | 101° |
| 2026-05-01 12:25 | 53.44034 | -6.33996 | 936 ft | 134 kts | 100° |
| 2026-05-01 12:25 | 53.43950 | -6.32439 | 717 ft | 134 kts | 98° |
| 2026-05-01 12:26 | 53.43868 | -6.30884 | 564 ft | 133 kts | 98° |
| 2026-05-01 12:26 | 53.43696 | -6.27792 | 269 ft | 131 kts | 97° |
| 2026-05-01 12:26 | 53.43599 | -6.26352 | 218 ft | 109 kts | 95° |
| 2026-05-01 12:27 | 53.43586 | -6.25055 | 586 ft | 121 kts | 91° |
| 2026-05-01 12:27 | 53.43780 | -6.21518 | 2021 ft | 170 kts | 85° |
| 2026-05-01 12:28 | 53.44168 | -6.17154 | 2844 ft | 208 kts | 84° |
| 2026-05-01 12:28 | 53.44335 | -6.14704 | 3020 ft | 213 kts | 87° |
| 2026-05-01 12:28 | 53.46108 | -6.10857 | 3021 ft | 222 kts | 27° |
| 2026-05-01 12:29 | 53.47604 | -6.10401 | 3029 ft | 222 kts | 354° |
| 2026-05-01 12:29 | 53.49123 | -6.10788 | 3031 ft | 220 kts | 347° |
| 2026-05-01 12:29 | 53.52113 | -6.11848 | 3030 ft | 220 kts | 345° |
| 2026-05-01 12:30 | 53.54481 | -6.14619 | 3029 ft | 210 kts | 301° |
| 2026-05-01 12:30 | 53.55124 | -6.16765 | 3061 ft | 202 kts | 277° |
| 2026-05-01 12:30 | 53.55113 | -6.19078 | 3293 ft | 198 kts | 251° |
| 2026-05-01 12:31 | 53.54718 | -6.21261 | 3537 ft | 198 kts | 249° |
| 2026-05-01 12:31 | 53.54306 | -6.23482 | 3795 ft | 199 kts | 250° |
| 2026-05-01 12:31 | 53.53875 | -6.25796 | 3984 ft | 224 kts | 249° |
| 2026-05-01 12:31 | 53.53369 | -6.28485 | 4021 ft | 252 kts | 250° |
| 2026-05-01 12:32 | 53.52840 | -6.31318 | 4024 ft | 255 kts | 250° |
| 2026-05-01 12:32 | 53.51780 | -6.37012 | 4024 ft | 255 kts | 250° |
| 2026-05-01 12:32 | 53.51248 | -6.39853 | 4025 ft | 255 kts | 250° |
| 2026-05-01 12:33 | 53.50715 | -6.42692 | 4017 ft | 255 kts | 250° |
| 2026-05-01 12:33 | 53.50181 | -6.45532 | 4019 ft | 255 kts | 250° |
| 2026-05-01 12:33 | 53.49648 | -6.48369 | 4018 ft | 252 kts | 250° |
| 2026-05-01 12:33 | 53.49141 | -6.51071 | 4017 ft | 233 kts | 251° |
| 2026-05-01 12:34 | 53.48669 | -6.53576 | 4016 ft | 217 kts | 250° |
| 2026-05-01 12:34 | 53.48229 | -6.55900 | 4020 ft | 204 kts | 249° |
| 2026-05-01 12:34 | 53.47800 | -6.58139 | 4019 ft | 200 kts | 249° |
| 2026-05-01 12:34 | 53.47374 | -6.60356 | 4017 ft | 200 kts | 250° |
| 2026-05-01 12:35 | 53.46948 | -6.62581 | 4016 ft | 200 kts | 250° |
| 2026-05-01 12:35 | 53.46522 | -6.64813 | 4016 ft | 201 kts | 249° |
| 2026-05-01 12:35 | 53.46098 | -6.67043 | 4018 ft | 202 kts | 250° |
| 2026-05-01 12:35 | 53.45555 | -6.69191 | 4017 ft | 199 kts | 230° |
| 2026-05-01 12:36 | 53.44447 | -6.70481 | 4017 ft | 196 kts | 195° |
| 2026-05-01 12:36 | 53.43554 | -6.70577 | 4019 ft | 196 kts | 172° |
| 2026-05-01 12:36 | 53.42352 | -6.69522 | 4018 ft | 201 kts | 135° |
| 2026-05-01 12:36 | 53.41776 | -6.67380 | 4012 ft | 209 kts | 97° |
| 2026-05-01 12:37 | 53.42120 | -6.65026 | 3782 ft | 214 kts | 65° |
| 2026-05-01 12:37 | 53.42778 | -6.62777 | 3521 ft | 215 kts | 66° |
| 2026-05-01 12:37 | 53.43410 | -6.60520 | 3371 ft | 212 kts | 66° |
| 2026-05-01 12:37 | 53.44014 | -6.58354 | 3257 ft | 198 kts | 66° |
| 2026-05-01 12:38 | 53.44581 | -6.56313 | 3131 ft | 188 kts | 70° |
| 2026-05-01 12:38 | 53.44898 | -6.54260 | 3041 ft | 177 kts | 88° |
| 2026-05-01 12:38 | 53.44936 | -6.52267 | 2979 ft | 165 kts | 97° |
| 2026-05-01 12:38 | 53.44884 | -6.50412 | 2855 ft | 155 kts | 97° |
| 2026-05-01 12:39 | 53.44806 | -6.48637 | 2664 ft | 150 kts | 99° |
| 2026-05-01 12:39 | 53.44721 | -6.46902 | 2474 ft | 149 kts | 99° |
| 2026-05-01 12:39 | 53.44632 | -6.45163 | 2278 ft | 150 kts | 100° |
| 2026-05-01 12:39 | 53.44541 | -6.43434 | 2072 ft | 148 kts | 98° |
| 2026-05-01 12:40 | 53.44453 | -6.41760 | 1882 ft | 146 kts | 99° |
| 2026-05-01 12:40 | 53.44361 | -6.40025 | 1665 ft | 147 kts | 98° |
| 2026-05-01 12:40 | 53.44269 | -6.38310 | 1473 ft | 147 kts | 99° |
| 2026-05-01 12:40 | 53.44176 | -6.36618 | 1275 ft | 145 kts | 101° |
| 2026-05-01 12:41 | 53.44089 | -6.34948 | 1077 ft | 142 kts | 99° |
| 2026-05-01 12:41 | 53.44006 | -6.33319 | 878 ft | 140 kts | 100° |
| 2026-05-01 12:41 | 53.43914 | -6.31712 | 671 ft | 138 kts | 97° |
| 2026-05-01 12:41 | 53.43841 | -6.30124 | 486 ft | 134 kts | 96° |
| 2026-05-01 12:42 | 53.43761 | -6.28564 | 270 ft | 134 kts | 99° |
| 2026-05-01 12:42 | 53.43661 | -6.27077 | 215 ft | 116 kts | 95° |
| 2026-05-01 12:42 | 53.43602 | -6.26023 | 219 ft | 66 kts | 95° |
| 2026-05-01 12:42 | 53.43569 | -6.25424 | 210 ft | 46 kts | 97° |
| 2026-05-01 12:43 | 53.43501 | -6.25156 | 212 ft | 16 kts | 117° |
| 2026-05-01 12:43 | 53.43453 | -6.25005 | 217 ft | 13 kts | 124° |
| 2026-05-01 12:43 | 53.43383 | -6.25038 | 211 ft | 13 kts | 245° |
| 2026-05-01 12:43 | 53.43386 | -6.25179 | 215 ft | 12 kts | 277° |
| 2026-05-01 12:44 | 53.43393 | -6.25312 | 211 ft | 11 kts | 275° |
| 2026-05-01 12:44 | 53.43401 | -6.25439 | 211 ft | 12 kts | 276° |
| 2026-05-01 12:44 | 53.43346 | -6.25643 | 213 ft | 11 kts | 171° |
| 2026-05-01 12:45 | 53.43189 | -6.25500 | 211 ft | 12 kts | 111° |
| 2026-05-01 12:45 | 53.43208 | -6.25395 | 214 ft | 8 kts | 69° |
| 2026-05-01 12:45 | 53.43226 | -6.25317 | 213 ft | 7 kts | 69° |
| 2026-05-01 12:46 | 53.43250 | -6.25308 | 211 ft | 4 kts | 344° |
| 2026-05-01 12:46 | 53.43271 | -6.25321 | 214 ft | 3 kts | 339° |
| 2026-05-01 12:46 | 53.43291 | -6.25335 | 211 ft | 3 kts | 336° |
| 2026-05-01 12:46 | 53.43304 | -6.25345 | 211 ft | 0 kts | 336° |